createdAt,value
2022-08-25T00:00:42.650Z,23.68
2022-08-25T00:03:17.880Z,23.67
2022-08-25T00:05:52.576Z,23.64
2022-08-25T00:08:40.736Z,23.61
2022-08-25T00:11:47.052Z,23.60
2022-08-25T00:14:23.881Z,23.60
2022-08-25T00:17:00.889Z,23.60
2022-08-25T00:19:39.097Z,23.60
2022-08-25T00:22:26.836Z,23.60
2022-08-25T00:24:58.497Z,23.59
2022-08-25T00:27:40.623Z,23.58
2022-08-25T00:30:16.045Z,23.59
2022-08-25T00:33:08.751Z,23.58
2022-08-25T00:36:12.357Z,23.57
2022-08-25T00:39:05.962Z,23.56
2022-08-25T00:41:44.236Z,23.56
2022-08-25T00:44:20.533Z,23.56
2022-08-25T00:47:05.365Z,23.55
2022-08-25T00:49:51.255Z,23.54
2022-08-25T00:52:44.380Z,23.55
2022-08-25T00:55:24.673Z,23.56
2022-08-25T00:58:24.852Z,23.57
2022-08-25T01:01:11.657Z,23.56
2022-08-25T01:03:44.897Z,23.57
2022-08-25T01:06:22.691Z,23.58
2022-08-25T01:08:54.865Z,23.56
2022-08-25T01:11:32.153Z,23.56
2022-08-25T01:14:12.024Z,23.56
2022-08-25T01:16:46.526Z,23.57
2022-08-25T01:19:30.388Z,23.57
2022-08-25T01:22:08.631Z,23.57
2022-08-25T01:25:12.769Z,23.56
2022-08-25T01:27:41.783Z,23.55
2022-08-25T01:30:20.083Z,23.56
2022-08-25T01:32:59.739Z,23.55
2022-08-25T01:35:43.549Z,23.55
2022-08-25T01:38:26.931Z,23.65
2022-08-25T01:41:10.339Z,24.03
2022-08-25T01:43:42.176Z,24.36
2022-08-25T01:46:19.639Z,24.60
2022-08-25T01:48:53.599Z,24.76
2022-08-25T01:51:53.725Z,24.89
2022-08-25T01:54:25.539Z,25.00
2022-08-25T01:57:11.778Z,25.09
2022-08-25T01:59:50.025Z,25.22
2022-08-25T02:02:37.447Z,25.35
2022-08-25T02:05:14.317Z,25.49
2022-08-25T02:07:58.469Z,25.60
2022-08-25T02:10:34.634Z,25.67
2022-08-25T02:13:08.349Z,25.71
2022-08-25T02:15:54.437Z,25.78
2022-08-25T02:18:32.506Z,25.84
2022-08-25T02:21:11.751Z,25.92
2022-08-25T02:23:54.451Z,25.99
2022-08-25T02:26:26.414Z,26.08
2022-08-25T02:28:58.243Z,26.16
2022-08-25T02:31:35.870Z,26.21
2022-08-25T02:34:09.007Z,26.25
2022-08-25T02:36:49.317Z,26.27
2022-08-25T02:39:18.240Z,26.29
2022-08-25T02:41:56.275Z,26.28
2022-08-25T02:44:25.104Z,26.32
2022-08-25T02:46:56.418Z,26.37
2022-08-25T02:49:32.513Z,26.43
2022-08-25T02:52:07.423Z,26.49
2022-08-25T02:54:39.696Z,26.54
2022-08-25T02:57:16.077Z,26.58
2022-08-25T02:59:57.394Z,26.63
2022-08-25T03:02:27.478Z,26.65
2022-08-25T03:04:59.372Z,26.68
2022-08-25T03:07:55.058Z,26.70
2022-08-25T03:10:29.164Z,26.72
2022-08-25T03:13:13.422Z,26.73
2022-08-25T03:15:54.595Z,26.73
2022-08-25T03:18:34.857Z,26.76
2022-08-25T03:21:10.084Z,26.81
2022-08-25T03:23:42.705Z,26.86
2022-08-25T03:26:40.879Z,26.88
2022-08-25T03:29:19.037Z,26.90
2022-08-25T03:31:48.701Z,26.91
2022-08-25T03:34:37.277Z,26.91
2022-08-25T03:37:12.561Z,26.91
2022-08-25T03:39:49.568Z,26.92
2022-08-25T03:42:26.999Z,26.92
2022-08-25T03:44:59.461Z,26.92
2022-08-25T03:47:29.921Z,26.92
2022-08-25T03:50:01.180Z,26.92
2022-08-25T03:52:29.865Z,26.90
2022-08-25T03:55:06.128Z,26.90
2022-08-25T03:57:38.529Z,26.94
2022-08-25T04:00:29.408Z,26.96
2022-08-25T04:03:01.677Z,26.97
2022-08-25T04:05:41.424Z,26.97
2022-08-25T04:08:19.440Z,26.96
2022-08-25T04:11:08.026Z,26.96
2022-08-25T04:13:49.363Z,26.97
2022-08-25T04:16:33.254Z,26.97
2022-08-25T04:19:09.670Z,26.98
2022-08-25T04:21:50.673Z,27.01
2022-08-25T04:24:22.380Z,27.01
2022-08-25T04:26:55.102Z,27.01
2022-08-25T04:29:37.285Z,27.03
2022-08-25T04:32:23.081Z,27.04
2022-08-25T04:34:57.594Z,27.09
2022-08-25T04:37:49.321Z,27.14
2022-08-25T04:40:28.765Z,27.19
2022-08-25T04:43:16.489Z,27.23
2022-08-25T04:45:51.674Z,27.25
2022-08-25T04:48:27.859Z,27.26
2022-08-25T04:51:27.641Z,27.27
2022-08-25T04:54:16.425Z,27.28
2022-08-25T04:56:47.708Z,27.32
2022-08-25T04:59:36.028Z,27.34
2022-08-25T05:02:13.548Z,27.37
2022-08-25T05:04:53.914Z,27.37
2022-08-25T05:07:33.864Z,27.37
2022-08-25T05:10:05.718Z,27.38
2022-08-25T05:12:41.167Z,27.40
2022-08-25T05:15:36.600Z,27.41
2022-08-25T05:18:18.203Z,27.42
2022-08-25T05:20:53.797Z,27.41
2022-08-25T05:23:42.577Z,27.40
2022-08-25T05:26:28.213Z,27.40
2022-08-25T05:29:04.752Z,27.42
2022-08-25T05:31:41.746Z,27.43
2022-08-25T05:34:12.535Z,27.43
2022-08-25T05:36:44.833Z,27.43
2022-08-25T05:39:19.523Z,27.42
2022-08-25T05:41:51.086Z,27.39
2022-08-25T05:44:21.310Z,27.36
2022-08-25T05:46:52.768Z,27.33
2022-08-25T05:49:23.929Z,27.31
2022-08-25T05:51:52.515Z,27.29
2022-08-25T05:54:24.448Z,27.27
2022-08-25T05:56:58.997Z,27.30
2022-08-25T05:59:33.830Z,27.30
2022-08-25T06:02:21.275Z,27.30
2022-08-25T06:04:52.933Z,27.31
2022-08-25T06:07:24.671Z,27.32
2022-08-25T06:09:59.032Z,27.26
2022-08-25T06:12:57.271Z,27.29
2022-08-25T06:15:38.854Z,27.29
2022-08-25T06:18:17.239Z,27.28
2022-08-25T06:20:46.026Z,27.30
2022-08-25T06:23:19.526Z,27.34
2022-08-25T06:26:05.238Z,27.36
2022-08-25T06:28:37.376Z,27.41
2022-08-25T06:31:46.477Z,27.48
2022-08-25T06:34:33.015Z,27.47
2022-08-25T06:37:28.353Z,27.51
2022-08-25T06:39:59.670Z,27.57
2022-08-25T06:42:39.829Z,27.66
2022-08-25T06:45:19.680Z,27.77
2022-08-25T06:47:53.108Z,27.84
2022-08-25T06:50:50.329Z,27.86
2022-08-25T06:53:22.491Z,27.90
2022-08-25T06:56:10.389Z,27.93
2022-08-25T06:58:45.746Z,28.01
2022-08-25T07:01:47.203Z,28.11
2022-08-25T07:04:40.597Z,28.21
2022-08-25T07:07:12.965Z,28.30
2022-08-25T07:09:47.660Z,28.37
2022-08-25T07:12:30.228Z,28.42
2022-08-25T07:15:19.280Z,28.49
2022-08-25T07:18:15.712Z,28.58
2022-08-25T07:20:52.262Z,28.68
2022-08-25T07:23:48.841Z,28.55
2022-08-25T07:26:37.301Z,27.96
2022-08-25T07:29:32.725Z,27.43
2022-08-25T07:32:26.551Z,27.25
2022-08-25T07:35:24.191Z,27.71
2022-08-25T07:38:04.679Z,28.05
2022-08-25T07:41:05.189Z,28.22
2022-08-25T07:43:39.424Z,28.36
2022-08-25T07:46:19.636Z,28.51
2022-08-25T07:52:11.868Z,28.86
2022-08-25T07:54:54.203Z,29.07
2022-08-25T07:57:28.387Z,28.92
2022-08-25T08:00:03.291Z,28.35
2022-08-25T08:02:42.180Z,27.77
2022-08-25T08:05:15.432Z,27.45
2022-08-25T08:07:56.531Z,27.72
2022-08-25T08:10:53.936Z,28.02
2022-08-25T08:13:36.793Z,28.23
2022-08-25T08:16:41.303Z,28.34
2022-08-25T08:19:45.235Z,28.44
2022-08-25T08:22:18.124Z,28.54
2022-08-25T08:25:04.587Z,28.63
2022-08-25T08:27:47.236Z,28.69
2022-08-25T08:30:27.483Z,28.74
2022-08-25T08:33:10.070Z,28.76
2022-08-25T08:35:46.138Z,28.74
2022-08-25T08:38:22.092Z,28.71
2022-08-25T08:44:45.883Z,28.55
2022-08-25T08:47:55.175Z,28.51
2022-08-25T08:51:00.735Z,28.46
2022-08-25T08:54:24.241Z,28.39
2022-08-25T08:57:17.707Z,28.29
2022-08-25T08:59:50.695Z,28.23
2022-08-25T09:02:39.449Z,28.19
2022-08-25T09:05:51.988Z,28.14
2022-08-25T09:08:28.520Z,28.10
2022-08-25T09:11:16.509Z,28.04
2022-08-25T09:14:43.734Z,27.99
2022-08-25T09:17:35.663Z,27.94
2022-08-25T09:20:45.654Z,27.92
2022-08-25T09:23:47.504Z,27.88
2022-08-25T09:26:28.595Z,27.83
2022-08-25T09:29:07.068Z,27.80
2022-08-25T09:32:00.668Z,27.78
2022-08-25T09:34:54.244Z,27.77
2022-08-25T09:37:49.827Z,27.76
2022-08-25T09:40:24.914Z,27.76
2022-08-25T09:43:05.749Z,27.75
2022-08-25T09:46:07.391Z,27.72
2022-08-25T09:49:13.717Z,27.68
2022-08-25T09:52:01.081Z,27.70
2022-08-25T09:54:50.596Z,27.74
2022-08-25T09:57:37.840Z,27.78
2022-08-25T10:00:45.212Z,27.82
2022-08-25T10:03:25.195Z,27.86
2022-08-25T10:06:26.574Z,27.91
2022-08-25T10:09:07.536Z,27.93
2022-08-25T10:12:15.667Z,27.97
2022-08-25T10:15:29.768Z,28.02
2022-08-25T10:18:32.121Z,28.05
2022-08-25T10:21:25.943Z,28.11
2022-08-25T10:24:11.355Z,28.13
2022-08-25T10:26:59.889Z,28.16
2022-08-25T10:30:10.072Z,28.19
2022-08-25T10:33:04.733Z,28.27
2022-08-25T10:36:07.553Z,28.36
2022-08-25T10:39:34.204Z,28.46
2022-08-25T10:42:17.714Z,28.54
2022-08-25T10:45:31.652Z,28.56
2022-08-25T10:48:06.584Z,28.62
2022-08-25T10:51:20.566Z,28.69
2022-08-25T10:54:18.298Z,28.76
2022-08-25T10:57:01.933Z,28.83
2022-08-25T10:59:39.656Z,28.80
2022-08-25T11:02:38.527Z,28.35
2022-08-25T11:05:42.545Z,27.85
2022-08-25T11:08:25.774Z,27.75
2022-08-25T11:11:11.683Z,28.21
2022-08-25T11:13:48.740Z,28.56
2022-08-25T11:16:44.782Z,28.78
2022-08-25T11:19:30.884Z,29.03
2022-08-25T11:22:20.028Z,28.94
2022-08-25T11:25:18.741Z,28.45
2022-08-25T11:28:36.347Z,28.09
2022-08-25T11:31:17.565Z,27.91
2022-08-25T11:33:55.500Z,27.79
2022-08-25T11:36:42.303Z,27.81
2022-08-25T11:39:52.500Z,28.28
2022-08-25T11:43:20.680Z,28.73
2022-08-25T11:46:10.472Z,29.01
2022-08-25T11:49:04.619Z,29.05
2022-08-25T11:52:03.498Z,28.56
2022-08-25T11:54:55.428Z,28.03
2022-08-25T11:57:46.797Z,27.74
2022-08-25T12:00:37.495Z,27.55
2022-08-25T12:03:43.477Z,27.56
2022-08-25T12:06:31.900Z,28.28
2022-08-25T12:09:00.827Z,29.12
2022-08-25T12:11:38.790Z,29.69
2022-08-25T12:14:16.985Z,29.77
2022-08-25T12:17:18.459Z,29.66
2022-08-25T12:19:51.029Z,29.59
2022-08-25T12:22:27.074Z,29.52
2022-08-25T12:25:04.112Z,29.43
2022-08-25T12:27:38.996Z,29.24
2022-08-25T12:30:20.680Z,28.99
2022-08-25T12:33:12.418Z,28.74
2022-08-25T12:36:07.320Z,28.42
2022-08-25T12:38:53.095Z,28.12
2022-08-25T12:41:31.002Z,27.88
2022-08-25T12:44:47.226Z,27.69
2022-08-25T12:47:27.394Z,27.67
2022-08-25T12:50:33.633Z,28.08
2022-08-25T12:53:49.314Z,28.45
2022-08-25T12:56:50.052Z,28.66
2022-08-25T12:59:45.805Z,28.76
2022-08-25T13:02:26.422Z,28.65
2022-08-25T13:05:12.130Z,28.13
2022-08-25T13:08:15.568Z,27.59
2022-08-25T13:11:14.231Z,27.35
2022-08-25T13:14:18.083Z,27.76
2022-08-25T13:17:01.120Z,28.08
2022-08-25T13:19:34.764Z,28.27
2022-08-25T13:22:18.487Z,28.41
2022-08-25T13:27:41.968Z,28.69
2022-08-25T13:30:28.236Z,28.69
2022-08-25T13:33:20.544Z,28.22
2022-08-25T13:36:18.300Z,27.77
2022-08-25T13:39:04.060Z,27.51
2022-08-25T13:41:38.172Z,27.45
2022-08-25T13:44:06.757Z,27.87
2022-08-25T13:46:42.944Z,28.31
2022-08-25T13:49:26.559Z,28.62
2022-08-25T13:51:59.438Z,28.77
2022-08-25T13:55:12.463Z,28.45
2022-08-25T13:57:56.785Z,28.01
2022-08-25T14:00:53.668Z,27.72
2022-08-25T14:03:37.515Z,27.54
2022-08-25T14:06:39.477Z,27.68
2022-08-25T14:09:26.639Z,28.57
2022-08-25T14:15:26.286Z,29.27
2022-08-25T14:18:07.462Z,28.77
2022-08-25T14:20:37.723Z,28.34
2022-08-25T14:23:19.073Z,28.06
2022-08-25T14:26:10.580Z,27.95
2022-08-25T14:28:51.089Z,27.82
2022-08-25T14:31:29.123Z,27.67
2022-08-25T14:34:08.192Z,27.77
2022-08-25T14:36:51.747Z,28.55
2022-08-25T14:39:21.979Z,29.21
2022-08-25T14:42:17.136Z,29.44
2022-08-25T14:44:52.497Z,29.07
2022-08-25T14:47:24.621Z,28.67
2022-08-25T14:49:58.912Z,28.33
2022-08-25T14:52:32.614Z,28.02
2022-08-25T14:55:04.297Z,27.74
2022-08-25T14:57:52.720Z,27.48
2022-08-25T15:00:43.282Z,27.42
2022-08-25T15:03:26.238Z,27.90
2022-08-25T15:06:00.608Z,28.30
2022-08-25T15:08:48.801Z,28.55
2022-08-25T15:11:54.767Z,28.70
2022-08-25T15:14:36.379Z,28.61
2022-08-25T15:17:09.950Z,28.07
2022-08-25T15:20:17.210Z,27.48
2022-08-25T15:22:51.219Z,26.97
2022-08-25T15:25:25.671Z,26.80
2022-08-25T15:28:22.159Z,27.17
2022-08-25T15:31:03.484Z,27.55
2022-08-25T15:33:41.992Z,27.81
2022-08-25T15:36:23.311Z,27.95
2022-08-25T15:39:16.068Z,28.01
2022-08-25T15:42:02.775Z,28.08
2022-08-25T15:44:53.527Z,28.15
2022-08-25T15:47:45.584Z,28.23
2022-08-25T15:50:34.706Z,28.28
2022-08-25T15:53:12.590Z,28.32
2022-08-25T15:55:43.722Z,28.37
2022-08-25T15:58:24.157Z,28.42
2022-08-25T16:01:00.120Z,28.44
2022-08-25T16:03:29.105Z,28.45
2022-08-25T16:06:04.165Z,28.46
2022-08-25T16:08:37.432Z,28.47
2022-08-25T16:11:39.398Z,28.46
2022-08-25T16:14:15.254Z,28.49
2022-08-25T16:16:47.193Z,28.53
2022-08-25T16:19:15.977Z,28.55
2022-08-25T16:21:47.137Z,28.56
2022-08-25T16:24:16.755Z,28.55
2022-08-25T16:26:50.254Z,28.52
2022-08-25T16:29:26.404Z,28.46
2022-08-25T16:32:07.745Z,28.40
2022-08-25T16:34:40.267Z,28.33
2022-08-25T16:37:12.748Z,28.28
2022-08-25T16:39:45.811Z,28.26
2022-08-25T16:42:15.379Z,28.24
2022-08-25T16:44:47.783Z,28.21
2022-08-25T16:47:29.661Z,28.17
2022-08-25T16:50:13.342Z,28.11
2022-08-25T16:53:32.138Z,28.03
2022-08-25T16:56:08.540Z,27.98
2022-08-25T16:59:04.293Z,27.95
2022-08-25T17:01:40.074Z,27.92
2022-08-25T17:04:32.203Z,27.90
2022-08-25T17:07:09.477Z,27.87
2022-08-25T17:09:42.845Z,27.81
2022-08-25T17:12:22.417Z,27.79
2022-08-25T17:14:55.400Z,27.76
2022-08-25T17:17:27.443Z,27.74
2022-08-25T17:20:05.667Z,27.70
2022-08-25T17:22:40.243Z,27.66
2022-08-25T17:25:14.815Z,27.60
2022-08-25T17:27:54.419Z,27.55
2022-08-25T17:30:29.298Z,27.51
2022-08-25T17:33:24.033Z,27.46
2022-08-25T17:36:19.423Z,27.41
2022-08-25T17:38:54.331Z,27.39
2022-08-25T17:41:39.823Z,27.38
2022-08-25T17:44:31.193Z,27.36
2022-08-25T17:47:16.368Z,27.31
2022-08-25T17:49:59.725Z,27.28
2022-08-25T17:52:39.709Z,27.26
2022-08-25T17:55:12.076Z,27.24
2022-08-25T17:58:28.495Z,27.21
2022-08-25T18:00:58.881Z,27.18
2022-08-25T18:03:28.383Z,27.21
2022-08-25T18:05:57.171Z,27.20
2022-08-25T18:08:29.896Z,27.18
2022-08-25T18:11:04.912Z,27.15
2022-08-25T18:13:57.968Z,27.13
2022-08-25T18:16:33.146Z,27.07
2022-08-25T18:19:26.073Z,27.04
2022-08-25T18:22:23.906Z,27.03
2022-08-25T18:25:06.939Z,27.00
2022-08-25T18:27:47.196Z,26.99
2022-08-25T18:30:36.147Z,26.96
2022-08-25T18:33:10.669Z,26.93
2022-08-25T18:36:03.435Z,26.92
2022-08-25T18:38:58.208Z,26.92
2022-08-25T18:41:36.734Z,26.89
2022-08-25T18:44:06.719Z,26.88
2022-08-25T18:46:42.324Z,26.87
2022-08-25T18:49:26.920Z,26.84
2022-08-25T18:51:58.305Z,26.83
2022-08-25T18:54:47.557Z,26.83
2022-08-25T18:57:22.914Z,26.84
2022-08-25T18:59:55.054Z,26.85
2022-08-25T19:02:33.097Z,26.86
2022-08-25T19:05:10.730Z,26.88
2022-08-25T19:07:42.400Z,26.88
2022-08-25T19:10:14.949Z,26.87
2022-08-25T19:13:08.568Z,26.87
2022-08-25T19:15:59.936Z,26.84
2022-08-25T19:18:39.045Z,26.80
2022-08-25T19:21:13.497Z,26.79
2022-08-25T19:24:01.185Z,26.80
2022-08-25T19:27:07.153Z,26.80
2022-08-25T19:29:49.476Z,26.78
2022-08-25T19:32:36.081Z,26.79
2022-08-25T19:35:25.326Z,26.77
2022-08-25T19:38:00.892Z,26.77
2022-08-25T19:40:47.478Z,26.76
2022-08-25T19:43:20.053Z,26.75
2022-08-25T19:45:51.980Z,26.75
2022-08-25T19:48:38.211Z,26.75
2022-08-25T19:51:27.378Z,26.75
2022-08-25T19:54:35.183Z,26.75
2022-08-25T19:57:28.495Z,26.74
2022-08-25T20:00:32.893Z,26.79
2022-08-25T20:03:21.545Z,26.81
2022-08-25T20:06:36.250Z,26.83
2022-08-25T20:09:35.763Z,26.84
2022-08-25T20:12:06.168Z,26.86
2022-08-25T20:14:56.736Z,26.87
2022-08-25T20:17:39.228Z,26.88
2022-08-25T20:20:23.486Z,26.89
2022-08-25T20:23:16.055Z,26.90
2022-08-25T20:25:51.969Z,26.90
2022-08-25T20:28:20.751Z,26.89
2022-08-25T20:31:20.980Z,26.88
2022-08-25T20:34:00.988Z,26.87
2022-08-25T20:36:50.164Z,26.87
2022-08-25T20:39:33.950Z,26.85
2022-08-25T20:42:17.632Z,26.84
2022-08-25T20:45:15.355Z,26.84
2022-08-25T20:48:01.981Z,26.81
2022-08-25T20:50:42.627Z,26.82
2022-08-25T20:53:47.798Z,26.84
2022-08-25T20:56:36.836Z,26.84
2022-08-25T20:59:17.730Z,26.81
2022-08-25T21:01:55.708Z,26.80
2022-08-25T21:05:09.372Z,26.77
2022-08-25T21:07:44.227Z,26.73
2022-08-25T21:10:21.258Z,26.73
2022-08-25T21:13:19.148Z,26.72
2022-08-25T21:16:15.847Z,26.74
2022-08-25T21:18:51.872Z,26.78
2022-08-25T21:21:32.911Z,26.82
2022-08-25T21:24:09.873Z,26.83
2022-08-25T21:27:03.536Z,26.84
2022-08-25T21:29:44.340Z,26.83
2022-08-25T21:32:23.865Z,26.83
2022-08-25T21:35:40.233Z,26.82
2022-08-25T21:38:32.202Z,26.80
2022-08-25T21:41:19.107Z,26.81
2022-08-25T21:44:01.518Z,26.80
2022-08-25T21:46:41.554Z,26.80
2022-08-25T21:49:26.911Z,26.81
2022-08-25T21:52:09.227Z,26.82
2022-08-25T21:55:01.567Z,26.82
2022-08-25T21:57:44.168Z,26.80
2022-08-25T22:00:24.124Z,26.80
2022-08-25T22:03:38.194Z,26.81
2022-08-25T22:06:42.043Z,26.79
2022-08-25T22:10:01.187Z,26.80
2022-08-25T22:12:36.536Z,26.82
2022-08-25T22:15:36.650Z,26.85
2022-08-25T22:18:13.393Z,26.87
2022-08-25T22:21:01.085Z,26.88
2022-08-25T22:23:44.544Z,26.89
2022-08-25T22:26:39.696Z,26.89
2022-08-25T22:29:23.241Z,26.89
2022-08-25T22:32:19.256Z,26.89
2022-08-25T22:35:11.462Z,26.87
2022-08-25T22:38:27.489Z,26.86
2022-08-25T22:41:21.573Z,26.85
2022-08-25T22:43:58.426Z,26.86
2022-08-25T22:46:39.441Z,26.86
2022-08-25T22:49:22.344Z,26.87
2022-08-25T22:52:06.162Z,26.87
2022-08-25T22:54:51.868Z,26.87
2022-08-25T22:57:45.198Z,26.82
2022-08-25T23:00:38.186Z,26.77
2022-08-25T23:03:38.177Z,26.75
2022-08-25T23:06:29.305Z,26.78
2022-08-25T23:08:58.745Z,26.78
2022-08-25T23:11:30.103Z,26.80
2022-08-25T23:14:05.861Z,26.84
2022-08-25T23:16:43.460Z,26.88
2022-08-25T23:19:28.795Z,26.92
2022-08-25T23:22:11.153Z,26.93
2022-08-25T23:24:57.703Z,26.94
2022-08-25T23:27:29.665Z,26.95
2022-08-25T23:30:27.586Z,26.95
2022-08-25T23:33:04.726Z,26.96
2022-08-25T23:36:24.941Z,26.99
2022-08-25T23:39:04.634Z,26.99
2022-08-25T23:41:43.647Z,27.01
2022-08-25T23:44:43.906Z,27.02
2022-08-25T23:47:49.665Z,27.04
2022-08-25T23:50:24.687Z,27.04
2022-08-25T23:53:04.345Z,27.04
2022-08-25T23:55:56.703Z,27.01
2022-08-25T23:58:54.659Z,27.00
